Time;durP1;ratioP1;P1;durP2;ratioP2;P2;SDS_P1;SDS_P2;PMS_P1;PMS_P2;Temp;Humidity;BMP_temperature;BMP_pressure;BME280_temperature;BME280_humidity;BME280_pressure;Samples;Min_cycle;Max_cycle;Signal;HPM_P1;HPM_P2
2023/06/05 00:01:10;;;;;;;11.65;4.55;;;10.20;90.40;;;;;;5031905;28;20128;-69
2023/06/05 00:03:37;;;;;;;12.20;4.68;;;10.20;90.00;;;;;;5036442;28;20155;-70
2023/06/05 00:06:03;;;;;;;9.52;4.15;;;10.10;90.20;;;;;;5041332;28;20032;-69
2023/06/05 00:08:28;;;;;;;7.95;4.93;;;10.10;90.20;;;;;;5023583;28;20095;-69
2023/06/05 00:10:54;;;;;;;8.73;4.50;;;10.10;90.40;;;;;;5021164;28;20136;-68
2023/06/05 00:13:19;;;;;;;7.28;4.30;;;10.00;90.70;;;;;;5036827;28;20021;-69
2023/06/05 00:15:45;;;;;;;7.40;4.38;;;10.00;90.50;;;;;;5034988;28;20112;-68
2023/06/05 00:18:11;;;;;;;8.27;4.68;;;10.00;90.60;;;;;;5033148;28;20108;-69
2023/06/05 00:20:37;;;;;;;8.85;4.60;;;10.00;90.80;;;;;;5036216;28;20059;-70
2023/06/05 00:23:02;;;;;;;13.30;5.30;;;10.00;91.00;;;;;;5034811;28;20045;-70
2023/06/05 00:25:28;;;;;;;7.65;5.07;;;9.90;90.70;;;;;;5036416;28;20055;-68
2023/06/05 00:27:53;;;;;;;10.63;5.38;;;10.00;91.50;;;;;;5019064;28;20017;-70
2023/06/05 00:30:19;;;;;;;12.50;5.03;;;9.90;91.60;;;;;;5036048;28;20045;-69
2023/06/05 00:32:44;;;;;;;8.98;5.05;;;9.90;91.20;;;;;;5018938;28;20104;-70
2023/06/05 00:35:10;;;;;;;15.88;5.70;;;9.80;91.10;;;;;;5038055;28;20114;-69
2023/06/05 00:37:36;;;;;;;12.05;6.03;;;9.80;91.40;;;;;;5034204;28;20104;-68
2023/06/05 00:40:03;;;;;;;15.20;5.82;;;9.70;91.70;;;;;;5044315;28;20035;-69
2023/06/05 00:42:28;;;;;;;10.95;5.82;;;9.80;91.80;;;;;;5050256;28;20024;-68
2023/06/05 00:44:54;;;;;;;13.55;6.18;;;9.70;91.60;;;;;;5044962;28;20048;-68
2023/06/05 00:47:20;;;;;;;9.55;6.05;;;9.70;91.90;;;;;;5033180;28;20422;-71
2023/06/05 00:49:46;;;;;;;8.15;5.97;;;9.70;92.00;;;;;;5045219;28;20991;-68
2023/06/05 00:52:12;;;;;;;14.95;6.57;;;9.60;91.90;;;;;;5044694;28;20118;-68
2023/06/05 00:54:39;;;;;;;10.82;6.18;;;9.60;92.20;;;;;;5043483;28;20045;-69
2023/06/05 00:57:07;;;;;;;16.25;6.90;;;9.60;92.10;;;;;;5043309;28;20095;-70
2023/06/05 00:59:34;;;;;;;14.63;6.15;;;9.60;92.10;;;;;;5048052;28;20112;-69
2023/06/05 01:02:02;;;;;;;12.02;6.05;;;9.60;92.30;;;;;;5034906;28;20040;-69
2023/06/05 01:04:28;;;;;;;12.13;6.60;;;9.60;92.50;;;;;;5039030;28;20382;-69
2023/06/05 01:06:57;;;;;;;15.05;7.10;;;9.60;92.30;;;;;;5020582;28;20102;-69
2023/06/05 01:09:24;;;;;;;11.32;6.40;;;9.50;92.80;;;;;;5015548;28;20061;-70
2023/06/05 01:12:17;;;;;;;15.90;6.63;;;9.50;92.90;;;;;;5038581;28;20365;-68
2023/06/05 01:14:48;;;;;;;12.88;6.35;;;9.50;92.50;;;;;;5020674;28;20033;-68
2023/06/05 01:17:14;;;;;;;12.40;7.03;;;9.50;92.70;;;;;;5043547;28;20047;-69
2023/06/05 01:19:40;;;;;;;18.85;7.18;;;9.40;92.80;;;;;;5054648;28;20103;-68
2023/06/05 01:22:05;;;;;;;12.00;6.93;;;9.40;92.70;;;;;;5027080;28;20657;-69
2023/06/05 01:24:32;;;;;;;14.18;7.93;;;9.30;92.80;;;;;;5025828;28;20131;-68
2023/06/05 01:27:23;;;;;;;16.40;7.85;;;9.30;92.80;;;;;;5043517;28;20024;-69
2023/06/05 01:30:28;;;;;;;17.27;8.00;;;9.30;93.00;;;;;;5043759;28;20127;-68
2023/06/05 01:33:02;;;;;;;10.82;7.32;;;9.30;93.20;;;;;;5010300;28;20258;-69
2023/06/05 01:35:32;;;;;;;12.00;6.72;;;9.30;93.20;;;;;;5048807;28;20386;-69
2023/06/05 01:37:59;;;;;;;16.60;7.68;;;9.30;93.20;;;;;;5024731;28;20401;-68
2023/06/05 01:40:26;;;;;;;13.63;7.30;;;9.20;93.00;;;;;;5021254;28;20025;-68
2023/06/05 01:42:53;;;;;;;12.38;7.63;;;9.20;93.20;;;;;;5044405;28;20029;-69
2023/06/05 01:45:19;;;;;;;13.05;7.30;;;9.20;93.30;;;;;;5052667;28;20032;-68
2023/06/05 01:47:49;;;;;;;13.77;7.60;;;9.10;93.20;;;;;;5047467;28;20047;-68
2023/06/05 01:50:15;;;;;;;14.18;7.68;;;9.10;93.30;;;;;;5040218;28;20052;-68
2023/06/05 01:52:41;;;;;;;13.63;7.47;;;9.10;93.40;;;;;;5028260;28;20025;-68
2023/06/05 01:55:14;;;;;;;16.77;7.63;;;9.10;93.60;;;;;;5048296;28;20104;-68
2023/06/05 01:57:41;;;;;;;16.20;7.50;;;9.00;93.50;;;;;;5048252;28;20044;-68
2023/06/05 02:00:11;;;;;;;18.00;7.72;;;9.00;93.60;;;;;;5044302;28;20742;-68
2023/06/05 02:02:37;;;;;;;16.30;7.40;;;9.00;93.70;;;;;;5039605;28;20042;-69
2023/06/05 02:05:02;;;;;;;16.42;7.53;;;9.00;93.70;;;;;;5037117;28;20047;-70
2023/06/05 02:07:28;;;;;;;14.10;7.50;;;8.90;93.90;;;;;;5034974;28;20118;-68
2023/06/05 02:09:53;;;;;;;14.13;7.50;;;9.00;93.90;;;;;;5035234;28;20426;-71
2023/06/05 02:12:19;;;;;;;13.20;7.65;;;9.00;94.00;;;;;;5038232;28;20037;-71
2023/06/05 02:14:44;;;;;;;14.45;7.80;;;8.90;93.90;;;;;;5037252;28;20029;-69
2023/06/05 02:17:13;;;;;;;17.23;8.80;;;8.90;93.80;;;;;;5038709;28;20472;-69
2023/06/05 02:19:39;;;;;;;14.05;8.18;;;8.90;93.90;;;;;;5039614;28;20032;-69
2023/06/05 02:22:04;;;;;;;17.88;9.02;;;8.80;94.10;;;;;;5036192;28;20029;-71
2023/06/05 02:24:30;;;;;;;14.13;8.13;;;8.80;93.90;;;;;;5022748;28;20024;-69
2023/06/05 02:26:56;;;;;;;14.23;7.53;;;8.80;94.00;;;;;;5038946;28;20048;-69
2023/06/05 02:29:22;;;;;;;12.90;7.45;;;8.80;94.00;;;;;;5038340;28;20036;-69
2023/06/05 02:31:48;;;;;;;21.45;9.07;;;8.80;94.10;;;;;;5034549;28;20114;-68
2023/06/05 02:34:13;;;;;;;14.95;7.68;;;8.80;94.00;;;;;;5035680;28;20056;-69
2023/06/05 02:36:39;;;;;;;14.25;8.13;;;8.70;94.10;;;;;;5038046;28;20109;-68
2023/06/05 02:39:04;;;;;;;15.98;8.40;;;8.70;94.40;;;;;;5019908;28;20028;-68
2023/06/05 02:41:30;;;;;;;15.25;8.25;;;8.60;94.50;;;;;;5041837;28;20041;-68
2023/06/05 02:43:56;;;;;;;14.63;8.20;;;8.60;94.50;;;;;;5048553;28;20067;-69
2023/06/05 02:46:24;;;;;;;16.85;8.10;;;8.60;94.60;;;;;;5033451;28;20032;-68
2023/06/05 02:48:50;;;;;;;17.60;9.18;;;8.60;94.50;;;;;;5045450;28;20072;-68
2023/06/05 02:51:15;;;;;;;16.50;9.32;;;8.60;94.50;;;;;;5014424;28;20132;-68
2023/06/05 02:53:41;;;;;;;17.67;9.02;;;8.60;94.50;;;;;;5042566;28;20548;-69
2023/06/05 02:56:06;;;;;;;15.52;8.50;;;8.60;94.60;;;;;;5047218;28;20149;-69
2023/06/05 02:58:33;;;;;;;16.48;9.23;;;8.60;94.50;;;;;;5045819;28;20543;-68
2023/06/05 03:01:02;;;;;;;20.35;9.85;;;8.60;94.80;;;;;;5040408;28;20029;-71
2023/06/05 03:03:32;;;;;;;18.75;10.10;;;8.60;94.90;;;;;;5030851;28;20025;-67
2023/06/05 03:06:04;;;;;;;18.63;9.50;;;8.60;94.90;;;;;;5041963;28;20029;-69
2023/06/05 03:08:33;;;;;;;22.05;9.52;;;8.60;94.80;;;;;;5040741;28;20121;-69
2023/06/05 03:11:00;;;;;;;17.98;9.95;;;8.60;94.80;;;;;;5038253;28;20121;-68
2023/06/05 03:13:25;;;;;;;17.90;9.80;;;8.50;94.70;;;;;;5021242;28;20032;-68
2023/06/05 03:15:53;;;;;;;15.43;8.68;;;8.50;94.80;;;;;;5037110;28;20033;-68
2023/06/05 03:18:19;;;;;;;18.90;9.55;;;8.50;94.70;;;;;;5041114;28;20029;-68
2023/06/05 03:20:45;;;;;;;20.48;10.40;;;8.60;95.20;;;;;;5024534;28;20368;-68
2023/06/05 03:23:10;;;;;;;25.35;10.63;;;8.50;95.20;;;;;;5040781;28;20033;-68
2023/06/05 03:25:36;;;;;;;23.30;10.88;;;8.60;95.30;;;;;;5042997;28;20318;-69
2023/06/05 03:28:01;;;;;;;18.40;9.73;;;8.50;95.10;;;;;;5027011;28;20442;-68
2023/06/05 03:30:27;;;;;;;19.70;10.52;;;8.50;95.00;;;;;;5043188;28;20063;-68
2023/06/05 03:32:52;;;;;;;16.35;9.57;;;8.60;95.00;;;;;;5042753;28;20044;-68
2023/06/05 03:35:18;;;;;;;21.17;10.38;;;8.60;94.90;;;;;;5040388;28;20064;-70
2023/06/05 03:37:43;;;;;;;19.08;9.80;;;8.60;95.30;;;;;;5039737;28;20032;-68
2023/06/05 03:40:10;;;;;;;24.08;10.10;;;8.60;95.20;;;;;;5037586;28;20100;-68
2023/06/05 03:42:35;;;;;;;20.60;9.90;;;8.60;95.00;;;;;;5049222;28;20414;-71
2023/06/05 03:45:01;;;;;;;23.25;10.23;;;8.60;94.90;;;;;;5043502;28;20055;-68
2023/06/05 03:47:28;;;;;;;16.70;9.85;;;8.70;94.90;;;;;;5042218;28;20497;-68
2023/06/05 03:49:55;;;;;;;17.27;10.02;;;8.70;95.00;;;;;;5043528;28;20037;-68
2023/06/05 03:52:24;;;;;;;23.20;10.32;;;8.70;94.90;;;;;;5038425;28;20022;-68
2023/06/05 03:54:53;;;;;;;19.48;10.05;;;8.70;95.00;;;;;;5037461;28;20310;-69
2023/06/05 03:57:20;;;;;;;17.58;9.77;;;8.80;95.10;;;;;;5039566;28;20445;-68
2023/06/05 03:59:46;;;;;;;21.52;10.88;;;8.80;95.30;;;;;;5038567;28;20033;-68
2023/06/05 04:02:12;;;;;;;25.38;10.48;;;8.80;95.30;;;;;;5036504;28;20075;-69
2023/06/05 04:04:38;;;;;;;17.73;9.23;;;8.90;95.40;;;;;;5035265;28;20422;-69
2023/06/05 04:07:05;;;;;;;21.15;11.02;;;8.90;95.50;;;;;;5026008;28;20029;-69
2023/06/05 04:09:31;;;;;;;16.75;9.70;;;8.90;95.50;;;;;;5045911;28;20033;-68
2023/06/05 04:11:56;;;;;;;21.77;10.20;;;9.00;95.50;;;;;;5039510;28;20041;-68
2023/06/05 04:14:22;;;;;;;17.50;9.50;;;9.10;95.50;;;;;;5045105;28;20047;-68
2023/06/05 04:16:48;;;;;;;22.23;10.65;;;9.10;95.50;;;;;;5044807;28;20113;-68
2023/06/05 04:19:13;;;;;;;18.38;10.65;;;9.10;95.40;;;;;;5045986;28;20061;-69
2023/06/05 04:21:40;;;;;;;24.63;11.07;;;9.20;95.50;;;;;;5039834;28;20033;-69
2023/06/05 04:24:08;;;;;;;24.20;10.30;;;9.20;95.60;;;;;;5032379;28;20470;-70
2023/06/05 04:26:34;;;;;;;21.67;10.55;;;9.30;95.70;;;;;;5024215;28;20410;-69
2023/06/05 04:29:02;;;;;;;21.17;10.55;;;9.30;95.50;;;;;;5043472;28;20395;-68
2023/06/05 04:31:28;;;;;;;20.33;9.73;;;9.40;95.50;;;;;;5042291;28;20021;-69
2023/06/05 04:33:53;;;;;;;17.85;9.90;;;9.40;95.50;;;;;;5036795;28;20432;-68
2023/06/05 04:36:19;;;;;;;17.80;10.85;;;9.50;95.50;;;;;;5046804;28;20029;-68
2023/06/05 04:38:45;;;;;;;21.50;10.52;;;9.50;95.60;;;;;;5030425;28;20086;-68
2023/06/05 04:41:11;;;;;;;18.17;9.63;;;9.60;95.50;;;;;;5046611;28;20039;-68
2023/06/05 04:43:36;;;;;;;21.05;10.73;;;9.70;95.50;;;;;;5047257;28;20116;-69
2023/06/05 04:46:02;;;;;;;20.42;10.75;;;9.70;95.50;;;;;;5036140;28;20100;-68
2023/06/05 04:48:28;;;;;;;20.40;10.35;;;9.80;95.40;;;;;;5037012;28;20025;-68
2023/06/05 04:50:55;;;;;;;17.23;10.13;;;9.90;95.40;;;;;;5042477;28;20374;-68
2023/06/05 04:53:21;;;;;;;20.77;10.90;;;10.00;95.10;;;;;;5040345;28;20071;-69
2023/06/05 04:55:47;;;;;;;21.63;10.20;;;10.00;95.10;;;;;;5040531;28;20124;-68
2023/06/05 04:58:13;;;;;;;17.10;9.80;;;10.10;95.10;;;;;;5041913;28;20048;-68
2023/06/05 05:00:39;;;;;;;16.95;9.93;;;10.10;94.90;;;;;;5038912;28;20032;-71
2023/06/05 05:03:05;;;;;;;20.27;9.65;;;10.30;95.10;;;;;;5044641;28;20021;-68
2023/06/05 05:05:30;;;;;;;16.35;9.40;;;10.30;95.00;;;;;;5039579;28;20025;-69
2023/06/05 05:07:56;;;;;;;18.30;10.18;;;10.30;94.80;;;;;;5045193;28;20055;-69
2023/06/05 05:10:21;;;;;;;19.13;10.23;;;10.40;94.70;;;;;;5046696;28;20061;-69
2023/06/05 05:12:47;;;;;;;18.95;9.95;;;10.50;94.60;;;;;;5047855;28;20025;-69
2023/06/05 05:15:12;;;;;;;19.48;9.85;;;10.50;94.30;;;;;;5035534;28;20029;-71
2023/06/05 05:17:38;;;;;;;17.02;10.05;;;10.60;94.30;;;;;;5042579;28;20207;-69
2023/06/05 05:20:06;;;;;;;20.60;10.52;;;10.70;94.20;;;;;;5026519;28;20013;-71
2023/06/05 05:22:31;;;;;;;18.02;9.88;;;10.80;94.20;;;;;;5042350;28;20449;-70
2023/06/05 05:24:57;;;;;;;17.15;10.10;;;10.80;94.00;;;;;;5049180;28;20087;-69
2023/06/05 05:27:24;;;;;;;18.00;10.25;;;11.00;93.80;;;;;;5044049;28;20503;-69
2023/06/05 05:29:49;;;;;;;20.10;9.95;;;11.00;93.70;;;;;;5045899;28;20116;-69
2023/06/05 05:32:15;;;;;;;16.95;9.50;;;11.10;93.40;;;;;;5048909;28;20319;-69
2023/06/05 05:34:40;;;;;;;15.65;9.55;;;11.20;93.50;;;;;;5042349;28;20410;-68
2023/06/05 05:37:06;;;;;;;15.70;9.50;;;11.30;93.30;;;;;;5044000;28;20082;-69
2023/06/05 05:39:31;;;;;;;14.50;9.27;;;11.50;92.80;;;;;;5040594;28;20025;-68
2023/06/05 05:41:58;;;;;;;18.08;9.93;;;11.60;92.50;;;;;;5052567;28;20033;-68
2023/06/05 05:44:24;;;;;;;13.48;8.18;;;11.60;92.20;;;;;;5027882;28;20112;-68
2023/06/05 05:46:49;;;;;;;16.10;8.35;;;11.80;91.80;;;;;;5037037;28;20465;-68
2023/06/05 05:49:15;;;;;;;14.20;9.20;;;11.90;92.20;;;;;;5044827;28;20076;-70
2023/06/05 05:51:40;;;;;;;15.00;8.77;;;12.10;91.90;;;;;;5040593;28;20033;-68
2023/06/05 05:54:06;;;;;;;14.60;8.43;;;12.10;91.60;;;;;;5046198;28;20179;-68
2023/06/05 05:56:33;;;;;;;15.70;8.68;;;12.20;90.70;;;;;;5041768;28;20051;-68
2023/06/05 05:58:59;;;;;;;11.93;8.30;;;12.30;90.70;;;;;;5043326;28;20073;-68
2023/06/05 06:01:25;;;;;;;15.85;8.73;;;12.50;90.50;;;;;;5048505;28;20065;-68
2023/06/05 06:03:51;;;;;;;11.75;8.30;;;12.50;90.20;;;;;;5041075;28;20545;-67
2023/06/05 06:06:17;;;;;;;12.98;8.32;;;12.70;90.20;;;;;;5045500;28;20037;-68
2023/06/05 06:08:42;;;;;;;13.30;8.75;;;12.80;89.30;;;;;;5040163;28;20119;-68
2023/06/05 06:11:09;;;;;;;11.68;7.65;;;12.90;89.30;;;;;;5045981;28;20121;-69
2023/06/05 06:13:34;;;;;;;12.90;8.70;;;13.10;89.10;;;;;;5046250;28;20017;-68
2023/06/05 06:16:01;;;;;;;13.52;8.23;;;13.10;88.40;;;;;;5048086;28;20120;-69
2023/06/05 06:18:27;;;;;;;12.52;7.32;;;13.30;87.90;;;;;;5047939;28;20032;-69
2023/06/05 06:20:53;;;;;;;14.13;8.02;;;13.50;87.90;;;;;;5046923;28;20281;-69
2023/06/05 06:23:18;;;;;;;11.77;7.05;;;13.60;88.00;;;;;;5043665;28;20028;-69
2023/06/05 06:25:44;;;;;;;12.75;7.43;;;13.70;87.50;;;;;;5050532;28;20078;-68
2023/06/05 06:28:10;;;;;;;12.40;7.28;;;13.90;86.90;;;;;;5048554;28;20406;-68
2023/06/05 06:30:36;;;;;;;11.40;7.38;;;14.00;87.10;;;;;;5037178;28;20275;-68
2023/06/05 06:33:03;;;;;;;11.43;6.75;;;14.00;85.40;;;;;;5043341;28;20139;-68
2023/06/05 06:35:31;;;;;;;13.95;6.88;;;14.30;85.70;;;;;;5055229;28;20028;-69
2023/06/05 06:37:58;;;;;;;12.80;7.00;;;14.50;86.30;;;;;;5041630;28;20021;-69
2023/06/05 06:40:24;;;;;;;12.57;6.75;;;14.70;85.60;;;;;;5048117;28;20021;-68
2023/06/05 06:42:50;;;;;;;11.05;5.70;;;14.70;84.00;;;;;;5048876;28;20032;-68
2023/06/05 06:45:17;;;;;;;10.77;6.63;;;15.00;84.30;;;;;;5014091;28;20119;-69
2023/06/05 06:47:43;;;;;;;10.73;6.07;;;15.10;84.70;;;;;;5038362;28;20206;-69
2023/06/05 06:50:09;;;;;;;12.95;6.03;;;15.50;84.50;;;;;;5044228;28;20121;-68
2023/06/05 06:52:34;;;;;;;14.32;5.78;;;15.60;82.50;;;;;;5044192;28;20029;-69
2023/06/05 06:55:00;;;;;;;10.85;5.47;;;15.80;83.10;;;;;;5040386;28;20090;-68
2023/06/05 06:57:25;;;;;;;10.10;5.20;;;15.90;81.70;;;;;;5043271;28;20056;-70
2023/06/05 06:59:53;;;;;;;11.32;5.35;;;15.90;81.40;;;;;;5044435;28;20072;-68
2023/06/05 07:02:20;;;;;;;12.68;4.82;;;16.00;80.00;;;;;;5046201;28;20020;-69
2023/06/05 07:04:46;;;;;;;12.50;5.18;;;16.40;81.50;;;;;;5028249;28;20357;-68
2023/06/05 07:07:14;;;;;;;10.23;4.65;;;16.50;79.00;;;;;;5041225;28;20048;-68
2023/06/05 07:09:40;;;;;;;12.07;4.72;;;16.60;78.10;;;;;;5042875;28;20044;-69
2023/06/05 07:12:08;;;;;;;10.57;4.57;;;16.90;78.90;;;;;;5038446;28;20090;-70
2023/06/05 07:14:34;;;;;;;8.52;4.53;;;17.20;78.20;;;;;;5049823;28;20200;-70
2023/06/05 07:17:00;;;;;;;9.75;4.70;;;17.20;77.10;;;;;;5044056;28;20382;-68
2023/06/05 07:19:28;;;;;;;9.63;4.35;;;17.30;75.50;;;;;;5043510;28;20311;-68
2023/06/05 07:21:57;;;;;;;10.75;4.47;;;17.50;74.00;;;;;;5047303;28;20540;-68
2023/06/05 07:24:24;;;;;;;9.10;4.32;;;17.60;76.70;;;;;;5047705;28;20107;-68
2023/06/05 07:26:52;;;;;;;11.00;4.28;;;17.80;74.40;;;;;;5028180;28;20044;-68
2023/06/05 07:29:19;;;;;;;7.15;3.50;;;18.00;74.40;;;;;;5038031;28;20040;-70
2023/06/05 07:31:44;;;;;;;11.57;3.92;;;18.10;73.70;;;;;;5041116;28;20471;-68
2023/06/05 07:34:12;;;;;;;7.93;3.85;;;18.00;71.30;;;;;;5030224;28;20088;-68
2023/06/05 07:36:38;;;;;;;11.90;3.50;;;18.40;70.60;;;;;;5040383;28;20052;-69
2023/06/05 07:39:04;;;;;;;9.82;3.67;;;18.60;70.90;;;;;;5031629;28;20033;-69
2023/06/05 07:41:30;;;;;;;9.75;3.50;;;18.60;72.40;;;;;;5039507;28;20016;-71
2023/06/05 07:43:55;;;;;;;11.50;4.00;;;18.80;69.80;;;;;;5033082;28;20040;-69
2023/06/05 07:46:21;;;;;;;9.13;3.65;;;19.30;69.70;;;;;;5027093;28;20090;-69
2023/06/05 07:48:46;;;;;;;7.00;3.40;;;19.00;68.60;;;;;;5044838;28;20362;-68
2023/06/05 07:51:12;;;;;;;8.88;3.40;;;19.20;70.70;;;;;;5044441;28;20124;-69
2023/06/05 07:53:37;;;;;;;9.15;3.63;;;19.20;69.00;;;;;;5038392;28;20129;-70
2023/06/05 07:56:03;;;;;;;7.82;3.50;;;19.30;65.90;;;;;;5041769;28;20126;-68
2023/06/05 07:58:29;;;;;;;7.78;3.40;;;19.60;67.20;;;;;;5037431;28;20085;-68
2023/06/05 08:00:56;;;;;;;9.18;4.00;;;19.90;68.50;;;;;;5050403;28;20027;-69
2023/06/05 08:03:23;;;;;;;9.48;3.63;;;20.00;65.80;;;;;;5042105;28;20025;-69
2023/06/05 08:05:51;;;;;;;12.32;2.97;;;20.00;63.50;;;;;;5042156;28;20017;-69
2023/06/05 08:08:17;;;;;;;7.10;3.33;;;20.30;62.70;;;;;;5044697;28;20108;-69
2023/06/05 08:10:43;;;;;;;8.95;3.00;;;20.60;65.40;;;;;;5033990;28;20135;-69
2023/06/05 08:13:09;;;;;;;7.03;2.92;;;20.80;66.30;;;;;;5032880;28;20033;-69
2023/06/05 08:15:35;;;;;;;8.57;3.33;;;20.90;63.40;;;;;;5039835;28;20064;-69
2023/06/05 08:18:01;;;;;;;6.20;2.90;;;21.20;64.30;;;;;;5036799;28;20076;-69
2023/06/05 08:20:26;;;;;;;7.40;2.95;;;21.00;60.50;;;;;;5038886;28;20091;-69
2023/06/05 08:22:57;;;;;;;8.18;3.22;;;21.30;60.50;;;;;;5045443;28;20441;-68
2023/06/05 08:25:23;;;;;;;9.85;3.20;;;21.20;63.40;;;;;;5046653;28;20024;-69
2023/06/05 08:27:49;;;;;;;8.27;2.70;;;21.00;60.70;;;;;;5024616;28;20512;-69
2023/06/05 08:30:14;;;;;;;6.78;2.65;;;21.20;62.70;;;;;;5043426;28;20091;-69
2023/06/05 08:32:40;;;;;;;8.18;3.03;;;21.20;59.80;;;;;;5046419;28;20041;-69
2023/06/05 08:35:06;;;;;;;10.70;2.88;;;21.50;60.70;;;;;;5048880;28;20334;-70
2023/06/05 08:37:32;;;;;;;8.88;2.83;;;21.50;57.30;;;;;;5044117;28;20017;-68
2023/06/05 08:40:00;;;;;;;7.82;2.63;;;21.80;60.00;;;;;;5040792;28;20379;-71
2023/06/05 08:42:28;;;;;;;4.72;2.35;;;21.90;57.50;;;;;;5044349;28;20088;-67
2023/06/05 08:44:54;;;;;;;7.10;2.72;;;21.80;60.40;;;;;;5048059;28;20115;-70
2023/06/05 08:47:21;;;;;;;7.32;2.60;;;21.70;55.90;;;;;;5039345;28;20026;-70
2023/06/05 08:49:51;;;;;;;6.38;2.17;;;22.30;59.90;;;;;;5038582;28;20109;-71
2023/06/05 08:52:20;;;;;;;15.20;2.67;;;22.00;57.30;;;;;;5042081;28;20063;-70
2023/06/05 08:54:46;;;;;;;8.50;2.45;;;22.50;57.60;;;;;;5043494;28;20029;-71
2023/06/05 08:57:11;;;;;;;9.63;2.13;;;22.60;56.00;;;;;;5039677;28;20094;-70
2023/06/05 08:59:38;;;;;;;7.68;2.13;;;23.00;59.10;;;;;;5043280;28;20033;-71
2023/06/05 09:02:04;;;;;;;7.30;1.75;;;23.10;53.30;;;;;;5047448;28;20031;-70
2023/06/05 09:04:32;;;;;;;6.43;2.55;;;23.50;50.90;;;;;;5022689;28;20021;-73
2023/06/05 09:06:59;;;;;;;6.53;2.05;;;23.70;52.50;;;;;;5033134;28;20070;-70
2023/06/05 09:09:28;;;;;;;7.07;2.67;;;23.60;49.60;;;;;;5037411;28;20059;-70
2023/06/05 09:12:04;;;;;;;6.78;2.53;;;23.60;48.80;;;;;;5045069;28;20033;-70
2023/06/05 09:14:31;;;;;;;6.65;1.75;;;23.60;52.60;;;;;;5045682;28;20036;-70
2023/06/05 09:16:57;;;;;;;7.65;2.28;;;23.80;48.40;;;;;;5025721;28;20033;-71
2023/06/05 09:19:27;;;;;;;7.47;2.08;;;23.90;47.90;;;;;;5028838;28;20369;-71
2023/06/05 09:21:54;;;;;;;5.85;1.77;;;23.30;50.00;;;;;;5026079;28;20587;-71
2023/06/05 09:24:23;;;;;;;4.22;1.98;;;23.50;48.60;;;;;;5048718;28;20049;-70
2023/06/05 09:26:59;;;;;;;7.72;2.20;;;24.00;50.40;;;;;;5040834;28;20111;-68
2023/06/05 09:29:30;;;;;;;7.00;1.80;;;23.70;48.40;;;;;;5039571;28;20155;-68
2023/06/05 09:32:15;;;;;;;7.18;1.85;;;24.00;50.30;;;;;;5039643;28;20033;-69
2023/06/05 09:34:42;;;;;;;6.68;2.17;;;24.00;46.10;;;;;;5050809;28;20384;-71
2023/06/05 09:37:09;;;;;;;5.43;1.85;;;24.20;45.80;;;;;;5038223;28;20045;-71
2023/06/05 09:39:36;;;;;;;7.88;1.65;;;23.90;47.50;;;;;;5041870;28;20377;-71
2023/06/05 09:42:03;;;;;;;5.78;1.77;;;24.40;48.00;;;;;;5041818;28;20025;-68
2023/06/05 09:44:29;;;;;;;6.85;1.83;;;24.20;46.30;;;;;;5039770;28;20037;-72
2023/06/05 09:47:00;;;;;;;6.75;1.65;;;24.00;44.50;;;;;;5029069;28;20466;-71
2023/06/05 09:49:47;;;;;;;5.43;1.73;;;24.00;48.60;;;;;;5046987;28;20115;-68
2023/06/05 09:52:13;;;;;;;9.15;1.85;;;24.80;47.90;;;;;;5038323;28;20041;-68
2023/06/05 09:54:47;;;;;;;3.80;1.60;;;24.90;43.90;;;;;;5043605;28;20048;-71
2023/06/05 09:57:14;;;;;;;5.65;1.58;;;25.00;47.70;;;;;;5046172;28;20481;-68
2023/06/05 09:59:54;;;;;;;8.63;2.15;;;24.40;43.90;;;;;;5064138;28;20067;-71
2023/06/05 10:02:34;;;;;;;4.43;1.48;;;24.60;45.10;;;;;;5045059;28;20059;-69
2023/06/05 10:05:03;;;;;;;8.85;1.63;;;24.60;43.20;;;;;;5043493;28;20067;-70
2023/06/05 10:07:35;;;;;;;4.25;1.70;;;24.50;43.80;;;;;;5029377;28;20074;-68
2023/06/05 10:10:01;;;;;;;4.25;1.48;;;24.50;45.10;;;;;;5038097;28;20036;-69
2023/06/05 10:12:30;;;;;;;5.43;1.58;;;24.90;46.70;;;;;;5049711;28;20454;-68
2023/06/05 10:14:56;;;;;;;4.75;1.77;;;25.20;44.40;;;;;;5049585;28;20063;-71
2023/06/05 10:17:23;;;;;;;4.85;1.58;;;25.00;43.30;;;;;;5048807;28;20410;-68
2023/06/05 10:19:50;;;;;;;3.65;1.50;;;25.00;42.60;;;;;;5044918;28;20082;-69
2023/06/05 10:22:18;;;;;;;5.57;1.55;;;25.50;43.00;;;;;;5046182;28;20028;-69
2023/06/05 10:24:47;;;;;;;6.68;1.45;;;25.60;41.10;;;;;;5040589;28;20104;-69
2023/06/05 10:27:47;;;;;;;4.03;1.50;;;25.60;41.20;;;;;;5044679;28;20390;-68
2023/06/05 10:30:18;;;;;;;10.48;1.40;;;25.50;41.20;;;;;;5035732;28;20033;-69
2023/06/05 10:33:12;;;;;;;7.13;1.33;;;26.30;43.40;;;;;;5047462;28;20029;-70
2023/06/05 10:35:47;;;;;;;5.85;1.73;;;26.40;40.20;;;;;;5039384;28;20040;-69
2023/06/05 10:38:21;;;;;;;5.22;1.88;;;26.50;42.50;;;;;;5026290;28;20032;-69
2023/06/05 10:40:55;;;;;;;6.03;1.63;;;26.00;40.40;;;;;;5039223;28;20040;-69
2023/06/05 10:43:28;;;;;;;2.80;1.40;;;26.60;40.70;;;;;;5052384;28;20025;-69
2023/06/05 10:45:55;;;;;;;6.35;1.35;;;26.80;41.00;;;;;;5047003;28;20032;-69
2023/06/05 10:48:21;;;;;;;6.43;1.60;;;27.20;36.50;;;;;;5043937;28;20116;-69
2023/06/05 10:50:46;;;;;;;3.50;1.45;;;26.90;37.60;;;;;;5039754;28;20346;-69
2023/06/05 10:53:45;;;;;;;7.80;2.65;;;26.60;39.10;;;;;;5034532;28;20064;-70
2023/06/05 10:56:49;;;;;;;4.15;1.80;;;26.00;40.40;;;;;;5041287;28;20129;-69
2023/06/05 10:59:15;;;;;;;4.82;1.90;;;26.60;40.80;;;;;;5043013;28;20358;-70
2023/06/05 11:01:41;;;;;;;5.10;2.17;;;26.90;39.30;;;;;;5046236;28;20024;-71
2023/06/05 11:04:06;;;;;;;3.30;1.48;;;27.20;41.30;;;;;;5044341;28;20411;-71
2023/06/05 11:06:32;;;;;;;3.42;1.30;;;27.30;37.90;;;;;;5037370;28;20041;-72
2023/06/05 11:09:11;;;;;;;4.55;1.30;;;27.00;39.50;;;;;;5043349;28;20025;-70
2023/06/05 11:11:59;;;;;;;3.55;1.65;;;27.70;38.40;;;;;;5045030;28;20033;-70
2023/06/05 11:14:44;;;;;;;3.75;1.30;;;27.40;34.60;;;;;;5039885;28;20036;-69
2023/06/05 11:17:55;;;;;;;4.97;1.60;;;27.70;35.60;;;;;;5042732;28;20385;-70
2023/06/05 11:20:23;;;;;;;5.38;1.58;;;28.00;37.60;;;;;;5016930;28;20132;-70
2023/06/05 11:22:52;;;;;;;5.05;1.80;;;27.50;39.10;;;;;;5026616;28;20031;-70
2023/06/05 11:25:18;;;;;;;3.63;1.67;;;27.40;40.40;;;;;;5048147;28;20029;-70
2023/06/05 11:27:45;;;;;;;5.60;2.47;;;27.80;38.90;;;;;;5044897;28;20041;-69
2023/06/05 11:30:15;;;;;;;5.07;1.90;;;27.90;40.20;;;;;;5047962;28;20045;-69
2023/06/05 11:32:41;;;;;;;5.75;1.98;;;28.00;36.80;;;;;;5039664;28;20041;-71
2023/06/05 11:35:10;;;;;;;3.00;1.50;;;28.40;37.20;;;;;;5047720;28;20086;-70
2023/06/05 11:37:37;;;;;;;4.30;1.67;;;28.00;37.00;;;;;;5049595;28;20112;-70
2023/06/05 11:40:11;;;;;;;5.47;1.67;;;28.10;36.00;;;;;;5026713;28;20371;-70
2023/06/05 11:42:38;;;;;;;5.55;1.83;;;28.30;38.80;;;;;;5038621;28;20040;-70
2023/06/05 11:45:10;;;;;;;3.88;1.73;;;28.10;37.50;;;;;;5042663;28;20116;-71
2023/06/05 11:47:36;;;;;;;3.90;1.67;;;28.50;35.30;;;;;;5044468;28;20036;-70
2023/06/05 11:50:12;;;;;;;4.82;1.70;;;28.30;37.00;;;;;;5026132;28;20020;-70
2023/06/05 11:52:38;;;;;;;8.60;1.90;;;28.40;36.60;;;;;;5038939;28;20028;-68
2023/06/05 11:55:21;;;;;;;2.90;1.60;;;27.60;38.20;;;;;;5037741;28;20427;-68
2023/06/05 11:57:48;;;;;;;3.78;1.45;;;28.00;37.80;;;;;;5041549;28;20040;-69
2023/06/05 12:00:14;;;;;;;11.48;2.00;;;27.50;39.00;;;;;;5041516;28;20309;-67
2023/06/05 12:02:43;;;;;;;5.25;1.55;;;27.90;37.10;;;;;;5025531;28;20021;-68
2023/06/05 12:05:10;;;;;;;3.08;1.80;;;27.90;34.70;;;;;;5042543;28;20024;-68
2023/06/05 12:07:36;;;;;;;2.97;1.45;;;28.40;36.80;;;;;;5040071;28;20108;-68
2023/06/05 12:10:07;;;;;;;2.20;1.33;;;28.50;33.80;;;;;;5038452;28;20030;-69
2023/06/05 12:12:33;;;;;;;;;;;28.60;32.80;;;;;;5046091;28;20314;-69
2023/06/05 12:15:17;;;;;;;4.90;1.70;;;29.10;32.20;;;;;;5036259;28;20324;-69
2023/06/05 12:17:53;;;;;;;4.95;1.60;;;29.60;35.20;;;;;;5042252;28;20468;-68
2023/06/05 12:20:20;;;;;;;6.38;1.85;;;29.50;36.40;;;;;;5041869;28;20055;-69
2023/06/05 12:22:46;;;;;;;6.05;1.75;;;30.20;33.50;;;;;;5041484;28;20420;-70
2023/06/05 12:25:22;;;;;;;4.68;1.77;;;29.80;34.90;;;;;;5044495;28;20147;-71
2023/06/05 12:27:49;;;;;;;5.90;1.70;;;28.80;34.50;;;;;;5042856;28;20124;-70
2023/06/05 12:30:16;;;;;;;6.75;2.08;;;27.80;36.50;;;;;;5032564;28;20033;-69
2023/06/05 12:32:45;;;;;;;4.28;1.50;;;27.10;37.60;;;;;;5045645;28;20129;-70
2023/06/05 12:35:21;;;;;;;7.15;1.98;;;26.90;37.60;;;;;;5040932;28;20032;-67
2023/06/05 12:37:48;;;;;;;3.80;1.40;;;28.10;38.00;;;;;;5037638;28;20041;-69
2023/06/05 12:40:14;;;;;;;4.47;1.60;;;28.20;38.50;;;;;;5039189;28;20116;-69
2023/06/05 12:42:43;;;;;;;3.42;1.60;;;29.40;35.50;;;;;;5024438;28;20033;-70
2023/06/05 12:45:09;;;;;;;3.22;1.40;;;28.70;36.10;;;;;;5035912;28;20028;-70
2023/06/05 12:47:35;;;;;;;4.13;1.63;;;27.40;35.60;;;;;;5045756;28;20112;-70